Nearby METAR Reports

 

ENRY - Rygge (nor-Afb), Norway
Distance from station: SØ 12km
Oppdatert: 24/03/2019 12:50
Few Clouds
Few Clouds
 Vind fra SSV
Vind: SSV 28 km/h
Temperatur: 7°C
Wind Chill: 3°C
Duggpunkt: 2°C
Fuktighet: 71%
Barometer: 1014 hPa
Clouds: Few Clouds
Visibility: 10 km
Cloud details: Few Clouds 5486 m
2019/03/24 11:50 ENRY 241150Z AUTO 21015KT 9999NDV FEW180/// 07/02 Q1014
ENTO - Torp (civ/Nor-Af, Norway
Distance from station: SV 34km
Oppdatert: 24/03/2019 12:50
Klart
Klart
 Vind fra SSV
Vind: SSV 22 km/h
Temperatur: 7°C
Wind Chill: 4°C
Duggpunkt: 1°C
Fuktighet: 66%
Barometer: 1014 hPa
Oversikt: Klart
Visibility: greater than 10 km
2019/03/24 11:50 ENTO 241150Z 21012KT 180V230 CAVOK 07/01 Q1014 NOSIG
 
ENNO - Notodden, Norway
Distance from station: V 80km
Oppdatert: 23/03/2019 16:50
NOT Current
Few Clouds
Few Clouds
 Vind fra V
Vind: V 33 km/h
Temperatur: 8°C
Wind Chill: 3°C
Duggpunkt: -5°C
Fuktighet: 40%
Barometer: 1016 hPa
Clouds: Few Clouds
Visibility: 10 km
Cloud details: Few Clouds 1524 m
2019/03/23 15:50 ENNO 231550Z 28018KT 240V310 9999 FEW050 08/M05 Q1016
ENGM - Oslo/Gardermoen, Norway
Distance from station: NNØ 88km
Oppdatert: 24/03/2019 12:50
Klart
Klart
 Vind fra SSV
Vind: SSV 28 km/h
Temperatur: 5°C
Wind Chill: 1°C
Duggpunkt: -3°C
Fuktighet: 57%
Barometer: 1011 hPa
Oversikt: Klart
Visibility: greater than 10 km
2019/03/24 11:50 ENGM 241150Z 20015KT CAVOK 05/M03 Q1011 NOSIG
 
ESOK - Karlstad North, Sweden
Distance from station: Ø 153km
Oppdatert: 24/03/2019 12:50
Few Clouds
Few Clouds
 Vind fra SV
Vind: SV 26 km/h
Temperatur: 8°C
Wind Chill: 4°C
Duggpunkt: -2°C
Fuktighet: 50%
Barometer: 1013 hPa
Clouds: Few Clouds
Visibility: 10 km
Cloud details: Few Clouds 2713 m
2019/03/24 11:50 ESOK 241150Z AUTO 23014KT 9999 FEW089/// 08/M02 Q1013
ESST - Torsby, Sweden
Distance from station: ØNØ 154km
Oppdatert: 24/03/2019 12:50
Klart
Klart
 Vind fra VSV
Vind: VSV 19 km/h
Temperatur: 8°C
Wind Chill: 4°C
Duggpunkt: -2°C
Fuktighet: 50%
Barometer: 1011 hPa
Clouds: Klart
Visibility: 10 km
2019/03/24 11:50 ESST 241150Z AUTO 24010KT 200V280 9999 NCD 08/M02 Q1011
 
ESGT - Trollhattan (pvt, Sweden
Distance from station: SØ 159km
Oppdatert: 24/03/2019 12:50
Hovedsaklig skyet
Hovedsaklig skyet
 Vind fra SV
Vind: SV 31 km/h
Temperatur: 7°C
Wind Chill: 3°C
Duggpunkt: 1°C
Fuktighet: 66%
Barometer: 1017 hPa
Clouds: Hovedsaklig skyet
Visibility: 10 km
Cloud details: Delvis skyet 914 m
Hovedsaklig skyet 1859 m
2019/03/24 11:50 ESGT 241150Z 22017KT 190V250 9999 SCT030 BKN061 07/01 Q1017
ESIB - Satenas (swe-Afb, Sweden
Distance from station: SØ 164km
Oppdatert: 24/03/2019 12:50
Noe regn, Showers, Delvis skyet
Noe regn, Showers, Delvis skyet
 Vind fra VSV
Vind: VSV 28 km/h
Temperatur: 7°C
Wind Chill: 3°C
Duggpunkt: 3°C
Fuktighet: 76%
Barometer: 1017 hPa
Oversikt: Noe regn, Showers
Clouds: Delvis skyet
Visibility: 10 km
Cloud details: Delvis skyet 914 m
2019/03/24 11:50 ESIB 241150Z 25015KT 9999 -SHRA SCT030CB 07/03 Q1017
 
ENCN - Kristiansand/Kje, Norway
Distance from station: SV 202km
Oppdatert: 24/03/2019 12:50
Noe regn, Showers, Small hail, Delvis skyet
Noe regn, Showers, Small hail, Delvis skyet
 Vind fra V
Vind: V 20 km/h
Temperatur: 6°C
Wind Chill: 2°C
Duggpunkt: 3°C
Fuktighet: 81%
Barometer: 1017 hPa
Oversikt: Noe regn, Showers, Small hail
Clouds: Delvis skyet
Visibility: 10 km
Cloud details: Delvis skyet 610 m
Delvis skyet 1006 m
2019/03/24 11:50 ENCN 241150Z 26011KT 9999 -SHRAGS SCT020CB SCT033 06/03 Q1017
EKSN - Sindal Airport, Denmark
Distance from station: S 217km
Oppdatert: 22/03/2019 13:20
NOT Current
Klart
Klart
 Vind fra S
Vind: S 17 km/h
Temperatur: 10°C
Wind Chill: 8°C
Duggpunkt: 4°C
Fuktighet: 67%
Barometer: 1029 hPa
Oversikt: Klart
Visibility: greater than 10 km
2019/03/22 12:20 EKSN 221220Z 19009KT CAVOK 10/04 Q1029
 
ESGG - Goteborg/Landvet, Sweden
Distance from station: SSØ 220km
Oppdatert: 24/03/2019 12:50
Hovedsaklig skyet
Hovedsaklig skyet
 Vind fra VSV
Vind: VSV 30 km/h
Temperatur: 7°C
Wind Chill: 3°C
Duggpunkt: 0°C
Fuktighet: 61%
Barometer: 1019 hPa
Clouds: Hovedsaklig skyet
Visibility: 10 km
Cloud details: Delvis skyet 792 m
Hovedsaklig skyet 1676 m
2019/03/24 11:50 ESGG 241150Z 24016KT 9999 SCT026 BKN055 07/00 Q1019 R88/09//95
ESGR - Skovde Airport, Sweden
Distance from station: ØSØ 221km
Oppdatert: 24/03/2019 12:50
Hovedsaklig skyet
Hovedsaklig skyet
 Vind fra V
Vind: V 26 km/h
Temperatur: 8°C
Wind Chill: 4°C
Duggpunkt: -1°C
Fuktighet: 53%
Barometer: 1016 hPa
Clouds: Hovedsaklig skyet
Visibility: 10 km
Cloud details: Delvis skyet 1372 m
Hovedsaklig skyet 1890 m
2019/03/24 11:50 ESGR 241150Z AUTO 27014KT 9999 SCT045/// BKN062/// 08/M01 Q1016
 
ESOE - Orebro (private), Sweden
Distance from station: Ø 252km
Oppdatert: 24/03/2019 12:50
Delvis skyet
Delvis skyet
 Vind fra VSV
Vind: VSV 20 km/h, Vindkast: 41 km/h
Temperatur: 8°C
Wind Chill: 4°C
Duggpunkt: 0°C
Fuktighet: 57%
Barometer: 1014 hPa
Clouds: Delvis skyet
Visibility: 10 km
Cloud details: Few Clouds 975 m
Delvis skyet 1128 m
2019/03/24 11:50 ESOE 241150Z AUTO 25011G22KT 180V300 9999 FEW032/// SCT037/// 08/M00 Q1014
EKYT - Alborg, Denmark
Distance from station: S 264km
Oppdatert: 24/03/2019 12:50
Hovedsaklig skyet
Hovedsaklig skyet
 Vind fra VSV
Vind: VSV 39 km/h
Temperatur: 8°C
Wind Chill: 3°C
Duggpunkt: 2°C
Fuktighet: 66%
Barometer: 1020 hPa
Clouds: Hovedsaklig skyet
Visibility: 10 km
Cloud details: Hovedsaklig skyet 2134 m
2019/03/24 11:50 EKYT 241150Z AUTO 25021KT 9999 BKN070/// 08/02 Q1020
 
ENSG - Sogndal/Haukasen, Norway
Distance from station: NV 269km
Oppdatert: 24/03/2019 12:50
Nearby showers, Hovedsaklig skyet
Nearby showers, Hovedsaklig skyet
 Vind fra VSV
Vind: VSV 22 km/h
Temperatur: 1°C
Wind Chill: -4°C
Duggpunkt: -1°C
Fuktighet: 87%
Barometer: 1008 hPa
Oversikt: Nearby Showers
Clouds: Hovedsaklig skyet
Visibility: 10 km
Cloud details: Few Clouds 305 m
Hovedsaklig skyet 823 m
2019/03/24 11:50 ENSG 241150Z 24012KT 9999 VCSH FEW010 BKN027 01/M01 Q1008 RMK WIND 3806FT 22024KT
ESGJ - Jonkoping Airpor, Sweden
Distance from station: SØ 273km
Oppdatert: 24/03/2019 12:50
Delvis skyet
Delvis skyet
 Vind fra V
Vind: V 24 km/h
Temperatur: 7°C
Wind Chill: 3°C
Duggpunkt: -1°C
Fuktighet: 57%
Barometer: 1017 hPa
Clouds: Delvis skyet
Visibility: 10 km
Cloud details: Few Clouds 1341 m
Delvis skyet 1615 m
2019/03/24 11:50 ESGJ 241150Z AUTO 26013KT 9999 FEW044/// SCT053/// 07/M01 Q1017
 
ENZV - Stavanger/Sola(A, Norway
Distance from station: V 292km
Oppdatert: 24/03/2019 12:50
Delvis skyet
Delvis skyet
 Vind fra SSV
Vind: SSV 26 km/h
Temperatur: 7°C
Wind Chill: 3°C
Duggpunkt: 4°C
Fuktighet: 81%
Barometer: 1015 hPa
Clouds: Delvis skyet
Visibility: 10 km
Cloud details: Few Clouds 610 m
Delvis skyet 762 m
2019/03/24 11:50 ENZV 241150Z 21014KT 9999 FEW020TCU SCT025 07/04 Q1015 TEMPO SHRA BKN012CB
ESSD - Borlange (swe-Af, Sweden
Distance from station: ØNØ 292km
Oppdatert: 24/03/2019 12:50
Klart
Klart
 Vind fra VSV
Vind: VSV 28 km/h
Temperatur: 7°C
Wind Chill: 3°C
Duggpunkt: -3°C
Fuktighet: 49%
Barometer: 1010 hPa
Clouds: Klart
Visibility: 10 km
2019/03/24 11:50 ESSD 241150Z AUTO 25015KT 9999 NCD 07/M03 Q1010
 
ENSO - Stord/Soerstokke, Norway
Distance from station: V 300km
Oppdatert: 24/03/2019 12:50
Nearby showers, Hovedsaklig skyet
Nearby showers, Hovedsaklig skyet
 Vind fra SV
Vind: SV 19 km/h
Temperatur: 8°C
Wind Chill: 4°C
Duggpunkt: 5°C
Fuktighet: 82%
Barometer: 1013 hPa
Oversikt: Nearby Showers
Clouds: Hovedsaklig skyet
Visibility: 10 km
Cloud details: Delvis skyet 549 m
Delvis skyet 792 m
Hovedsaklig skyet 1372 m
2019/03/24 11:50 ENSO 241150Z 23010KT 170V290 9999 VCSH SCT018CB SCT026 BKN045 08/05 Q1013
ESCF - Linkoping/Malmen, Sweden
Distance from station: ØSØ 305km
Oppdatert: 24/03/2019 12:50
Delvis skyet
Delvis skyet
 Vind fra VSV
Vind: VSV 33 km/h
Temperatur: 8°C
Wind Chill: 3°C
Duggpunkt: -1°C
Fuktighet: 53%
Barometer: 1016 hPa
Clouds: Delvis skyet
Visibility: 10 km
Cloud details: Few Clouds 1311 m
Delvis skyet 6706 m
2019/03/24 11:50 ESCF 241150Z AUTO 24018KT 9999 FEW043/// SCT220/// 08/M01 Q1016